Time;durP1;ratioP1;P1;durP2;ratioP2;P2;SDS_P1;SDS_P2;PMS_P1;PMS_P2;Temp;Humidity;BMP_temperature;BMP_pressure;BME280_temperature;BME280_humidity;BME280_pressure;Samples;Min_cycle;Max_cycle;Signal;HPM_P1;HPM_P2
2023/03/23 00:00:42;;;;;;;2.93;1.77;;;;;;;5.97;68.41;97346.81;6134461;28;20324;-36
2023/03/23 00:03:43;;;;;;;2.67;1.67;;;;;;;5.91;68.66;97350.28;6136349;28;20432;-37
2023/03/23 00:06:45;;;;;;;1.93;1.67;;;;;;;5.76;68.73;97318.13;6135103;28;20734;-36
2023/03/23 00:09:46;;;;;;;1.70;1.53;;;;;;;5.85;68.74;97351.97;6134999;28;20710;-36
2023/03/23 00:12:49;;;;;;;2.20;1.60;;;;;;;5.80;68.88;97343.91;6133843;28;20609;-36
2023/03/23 00:15:53;;;;;;;2.67;1.60;;;;;;;5.80;68.93;97346.53;6134701;28;20258;-36
2023/03/23 00:18:56;;;;;;;1.90;1.40;;;;;;;5.80;69.04;97340.47;6131546;28;20240;-36
2023/03/23 00:22:00;;;;;;;1.60;1.40;;;;;;;5.81;69.09;97350.00;6135869;28;20752;-36
2023/03/23 00:25:01;;;;;;;1.40;1.30;;;;;;;5.82;68.97;97349.78;6124647;28;20242;-36
2023/03/23 00:28:02;;;;;;;2.03;1.50;;;;;;;5.80;68.94;97348.38;6135051;28;20690;-36
2023/03/23 00:31:06;;;;;;;1.50;1.30;;;;;;;5.76;68.86;97353.28;6130943;28;20237;-36
2023/03/23 00:34:12;;;;;;;1.37;1.27;;;;;;;5.70;68.76;97351.53;6134740;28;20246;-36
2023/03/23 00:37:12;;;;;;;3.57;1.50;;;;;;;5.67;68.76;97344.06;6133275;28;20296;-36
2023/03/23 00:40:13;;;;;;;1.67;1.30;;;;;;;5.60;68.74;97340.66;6132918;28;20236;-36
2023/03/23 00:43:16;;;;;;;1.53;1.27;;;;;;;5.61;68.87;97348.34;6131081;29;20235;-36
2023/03/23 00:46:17;;;;;;;1.17;1.07;;;;;;;5.57;69.00;97352.50;6132556;28;20240;-36
2023/03/23 00:49:24;;;;;;;2.10;1.30;;;;;;;5.55;69.06;97351.06;6133809;28;20243;-36
2023/03/23 00:52:26;;;;;;;2.03;1.20;;;;;;;5.48;69.29;97345.06;6137366;28;20256;-36
2023/03/23 00:55:27;;;;;;;1.43;1.33;;;;;;;5.33;69.04;97324.25;6137587;28;20343;-36
2023/03/23 00:58:28;;;;;;;2.20;1.40;;;;;;;5.51;69.15;97341.97;6134320;28;20236;-36
2023/03/23 01:01:29;;;;;;;2.03;1.50;;;;;;;5.49;69.04;97342.19;6118544;28;20236;-36
2023/03/23 01:04:31;;;;;;;2.47;1.20;;;;;;;5.35;69.04;97327.47;6144606;28;20231;-36
2023/03/23 01:07:32;;;;;;;1.37;1.27;;;;;;;5.39;69.21;97340.03;6132583;28;20285;-36
2023/03/23 01:10:38;;;;;;;1.80;1.20;;;;;;;5.27;69.18;97327.75;6132914;28;20227;-36
2023/03/23 01:13:40;;;;;;;1.40;1.00;;;;;;;5.30;69.52;97336.06;6138828;28;20251;-36
2023/03/23 01:16:41;;;;;;;2.03;1.60;;;;;;;5.33;69.58;97338.28;6137916;28;20242;-36
2023/03/23 01:19:42;;;;;;;1.37;1.20;;;;;;;5.14;69.86;97310.19;6133859;28;20606;-36
2023/03/23 01:22:43;;;;;;;2.97;1.37;;;;;;;5.08;69.88;97308.44;6131525;28;20247;-36
2023/03/23 01:25:45;;;;;;;1.83;1.30;;;;;;;5.26;69.95;97340.13;6147862;28;20293;-36
2023/03/23 01:28:46;;;;;;;1.33;1.10;;;;;;;5.26;69.72;97340.13;6133624;28;20676;-36
2023/03/23 01:31:47;;;;;;;1.53;1.20;;;;;;;5.18;69.83;97327.22;6128695;28;20226;-37
2023/03/23 01:34:48;;;;;;;1.63;1.10;;;;;;;5.20;69.71;97346.28;6132406;28;20289;-36
2023/03/23 01:37:48;;;;;;;1.57;1.27;;;;;;;5.17;69.82;97350.19;6139874;28;20254;-35
2023/03/23 01:40:50;;;;;;;1.57;1.23;;;;;;;5.04;69.92;97326.53;6124383;28;20231;-35
2023/03/23 01:44:01;;;;;;;1.40;1.30;;;;;;;5.16;69.86;97337.19;6131742;28;20237;-36
2023/03/23 01:47:04;;;;;;;1.40;1.17;;;;;;;5.12;70.01;97333.34;6146659;28;20544;-36
2023/03/23 01:50:08;;;;;;;1.53;1.30;;;;;;;5.13;70.14;97324.44;6130884;28;20243;-37
2023/03/23 01:53:11;;;;;;;1.50;1.40;;;;;;;5.16;70.19;97318.69;6132395;28;20259;-36
2023/03/23 01:56:16;;;;;;;1.97;1.30;;;;;;;5.16;70.12;97314.22;6133016;28;20253;-36
2023/03/23 01:59:17;;;;;;;4.63;1.43;;;;;;;5.14;70.44;97318.91;6131999;28;20230;-36
2023/03/23 02:02:24;;;;;;;1.70;1.60;;;;;;;5.09;69.87;97307.41;6133469;28;20222;-36
2023/03/23 02:05:33;;;;;;;2.40;2.10;;;;;;;5.01;69.81;97289.97;6116080;28;20230;-36
2023/03/23 02:08:41;;;;;;;1.60;1.10;;;;;;;5.14;69.61;97313.63;6115889;28;20239;-35
2023/03/23 02:11:42;;;;;;;2.47;1.43;;;;;;;5.08;69.67;97311.88;6131700;28;20275;-35
2023/03/23 02:14:43;;;;;;;2.03;1.90;;;;;;;5.10;69.66;97314.28;6130767;28;20331;-35
2023/03/23 02:18:13;;;;;;;1.83;1.30;;;;;;;5.04;69.88;97315.16;6133794;28;20234;-36
2023/03/23 02:21:31;;;;;;;1.90;1.40;;;;;;;4.90;69.72;97290.69;6130426;28;20687;-36
2023/03/23 02:24:47;;;;;;;1.33;1.00;;;;;;;5.08;69.97;97319.00;6126474;28;20277;-36
2023/03/23 02:28:11;;;;;;;1.67;1.30;;;;;;;4.97;70.02;97314.38;6109434;28;20330;-35
2023/03/23 02:31:38;;;;;;;1.93;1.40;;;;;;;5.01;70.07;97320.84;6127830;28;20304;-36
2023/03/23 02:34:42;;;;;;;3.37;1.40;;;;;;;4.90;70.26;97304.69;6129479;28;20241;-35
2023/03/23 02:37:54;;;;;;;1.50;1.40;;;;;;;4.97;70.26;97312.56;6131110;28;20253;-36
2023/03/23 02:40:59;;;;;;;1.43;1.33;;;;;;;4.94;70.43;97322.75;6131103;28;20243;-36
2023/03/23 02:44:02;;;;;;;2.37;1.60;;;;;;;4.95;70.65;97319.09;6130237;28;20313;-36
2023/03/23 02:47:07;;;;;;;3.73;1.60;;;;;;;5.00;70.82;97322.69;6130154;28;20285;-36
2023/03/23 02:50:12;;;;;;;2.00;1.57;;;;;;;5.03;70.51;97318.81;6130568;28;20717;-36
2023/03/23 02:53:18;;;;;;;2.43;1.30;;;;;;;5.02;70.60;97325.91;6129624;28;20235;-36
2023/03/23 02:56:22;;;;;;;2.03;1.50;;;;;;;5.02;70.60;97319.81;6131096;28;20243;-36
2023/03/23 02:59:23;;;;;;;3.13;1.47;;;;;;;4.76;70.67;97284.69;6130032;28;20331;-36
2023/03/23 03:02:28;;;;;;;2.53;1.20;;;;;;;4.82;70.59;97297.03;6126671;28;20234;-36
2023/03/23 03:05:45;;;;;;;2.10;1.40;;;;;;;5.00;70.58;97324.53;6119720;28;20235;-36
2023/03/23 03:08:53;;;;;;;1.53;1.43;;;;;;;4.96;70.60;97313.56;6121789;28;20452;-36
2023/03/23 03:12:00;;;;;;;1.40;1.30;;;;;;;4.98;70.78;97326.59;6139223;28;20239;-36
2023/03/23 03:15:19;;;;;;;1.83;1.20;;;;;;;4.99;70.87;97334.28;6132284;28;20250;-36
2023/03/23 03:18:28;;;;;;;1.80;1.50;;;;;;;4.89;70.72;97305.72;6121417;28;20421;-36
2023/03/23 03:21:33;;;;;;;1.67;1.30;;;;;;;5.01;70.67;97332.22;6138672;28;20260;-36
2023/03/23 03:24:40;;;;;;;1.60;1.37;;;;;;;4.98;71.08;97337.94;6097294;28;20596;-36
2023/03/23 03:27:45;;;;;;;1.90;1.33;;;;;;;5.01;71.10;97334.06;6131025;28;20235;-36
2023/03/23 03:30:56;;;;;;;4.30;1.60;;;;;;;5.01;70.87;97326.94;6129020;28;20253;-36
2023/03/23 03:33:57;;;;;;;1.50;1.40;;;;;;;4.88;70.71;97314.66;6135765;28;20235;-36
2023/03/23 03:36:59;;;;;;;3.03;1.47;;;;;;;4.95;70.67;97324.34;6131142;28;20230;-36
2023/03/23 03:40:00;;;;;;;1.77;1.30;;;;;;;5.03;70.61;97337.31;6130023;28;20253;-35
2023/03/23 03:43:02;;;;;;;2.47;1.50;;;;;;;5.00;70.65;97335.88;6115473;28;20309;-35
2023/03/23 03:46:03;;;;;;;1.83;1.57;;;;;;;4.97;70.75;97336.31;6132132;28;20725;-35
2023/03/23 03:49:07;;;;;;;1.83;1.30;;;;;;;4.96;70.95;97339.97;6131854;28;20322;-35
2023/03/23 03:52:10;;;;;;;1.63;1.20;;;;;;;4.96;70.87;97334.69;6146265;28;20278;-36
2023/03/23 03:55:17;;;;;;;1.30;1.20;;;;;;;4.98;70.80;97331.84;6129638;28;20254;-37
2023/03/23 03:58:22;;;;;;;1.30;1.20;;;;;;;5.02;71.05;97325.91;6129790;28;20599;-36
2023/03/23 04:01:45;;;;;;;1.43;1.33;;;;;;;5.01;70.88;97329.56;6124079;28;20231;-37
2023/03/23 04:04:48;;;;;;;3.00;1.40;;;;;;;4.97;70.92;97338.94;6129368;28;20235;-36
2023/03/23 04:07:51;;;;;;;2.60;1.17;;;;;;;4.98;71.07;97332.66;6126610;28;20234;-36
2023/03/23 04:10:54;;;;;;;1.27;1.10;;;;;;;4.97;70.94;97331.03;6145394;28;20231;-36
2023/03/23 04:13:55;;;;;;;1.63;1.10;;;;;;;4.90;70.91;97327.63;6133657;28;20234;-36
2023/03/23 04:16:59;;;;;;;1.60;1.20;;;;;;;5.02;71.07;97333.03;6135372;28;20437;-37
2023/03/23 04:20:06;;;;;;;2.40;1.23;;;;;;;4.97;71.00;97324.94;6136360;28;20615;-36
2023/03/23 04:23:07;;;;;;;1.60;1.13;;;;;;;4.98;71.07;97329.22;6133833;28;20253;-36
2023/03/23 04:26:12;;;;;;;1.90;1.23;;;;;;;4.83;71.26;97319.78;6133972;28;20252;-36
2023/03/23 04:29:19;;;;;;;1.30;1.20;;;;;;;4.89;71.16;97329.47;6135551;28;20329;-36
2023/03/23 04:32:55;;;;;;;2.93;1.60;;;;;;;4.81;71.27;97324.44;6133975;28;20970;-36
2023/03/23 04:36:02;;;;;;;2.83;1.37;;;;;;;4.88;71.28;97333.16;6125399;28;20595;-36
2023/03/23 04:39:11;;;;;;;3.87;1.60;;;;;;;4.89;70.98;97333.94;6142691;28;20238;-37
2023/03/23 04:42:13;;;;;;;1.57;1.20;;;;;;;4.88;70.96;97327.88;6133222;28;20222;-37
2023/03/23 04:45:58;;;;;;;1.80;1.27;;;;;;;4.72;71.03;97304.63;6093729;29;20271;-37
2023/03/23 04:49:02;;;;;;;1.33;1.23;;;;;;;4.81;71.21;97310.44;6133437;28;20337;-36
2023/03/23 04:52:10;;;;;;;4.93;1.40;;;;;;;4.96;71.44;97333.88;6135163;28;20231;-37
2023/03/23 04:55:19;;;;;;;1.57;1.40;;;;;;;4.98;71.55;97330.03;6118106;28;20237;-37
2023/03/23 04:58:28;;;;;;;2.53;1.33;;;;;;;4.99;71.47;97328.19;6132639;28;20246;-36
2023/03/23 05:01:56;;;;;;;4.23;1.63;;;;;;;5.10;71.31;97333.56;6132583;28;20233;-37
2023/03/23 05:04:59;;;;;;;2.53;1.37;;;;;;;5.15;71.32;97333.72;6132493;28;20683;-37
2023/03/23 05:08:03;;;;;;;1.50;1.40;;;;;;;5.20;71.15;97335.72;6128742;28;20231;-36
2023/03/23 05:11:09;;;;;;;1.60;1.33;;;;;;;5.24;71.23;97336.91;6139668;28;20251;-37
2023/03/23 05:14:13;;;;;;;2.27;1.20;;;;;;;5.29;71.31;97333.63;6129757;28;20243;-37
2023/03/23 05:17:16;;;;;;;1.40;1.30;;;;;;;5.18;71.16;97314.84;6132582;28;20238;-37
2023/03/23 05:20:20;;;;;;;1.67;1.40;;;;;;;5.31;71.16;97324.47;6132491;28;20315;-36
2023/03/23 05:23:43;;;;;;;1.93;1.50;;;;;;;5.38;71.19;97330.50;6129203;28;20231;-37
2023/03/23 05:26:52;;;;;;;1.90;1.43;;;;;;;5.51;71.36;97344.59;6124458;28;20626;-36
2023/03/23 05:30:00;;;;;;;1.93;1.27;;;;;;;5.61;71.38;97345.72;6136302;28;20268;-36
2023/03/23 05:33:03;;;;;;;1.83;1.30;;;;;;;5.71;71.64;97347.84;6131451;28;20285;-36
2023/03/23 05:36:16;;;;;;;1.73;1.60;;;;;;;5.85;71.45;97345.88;6128684;28;20580;-36
2023/03/23 05:39:36;;;;;;;1.63;1.30;;;;;;;5.89;71.49;97332.03;6130039;28;20711;-36
2023/03/23 05:42:55;;;;;;;2.00;1.33;;;;;;;6.13;71.39;97351.50;6136551;28;20553;-36
2023/03/23 05:46:05;;;;;;;1.70;1.37;;;;;;;6.30;71.21;97361.47;6129973;28;20309;-36
2023/03/23 05:49:07;;;;;;;1.60;1.33;;;;;;;6.38;71.28;97350.59;6132481;28;20701;-36
2023/03/23 05:52:13;;;;;;;1.40;1.13;;;;;;;6.65;70.69;97366.94;6132756;28;20239;-36
2023/03/23 05:55:14;;;;;;;1.53;1.40;;;;;;;6.71;70.30;97364.22;6132161;28;20241;-36
2023/03/23 05:58:20;;;;;;;1.50;1.20;;;;;;;6.79;70.54;97352.50;6115598;28;20332;-36
2023/03/23 06:01:23;;;;;;;1.47;1.27;;;;;;;7.05;70.20;97364.56;6130887;28;20269;-36
2023/03/23 06:04:26;;;;;;;1.47;1.20;;;;;;;6.77;70.35;97304.28;6130635;28;20237;-36
2023/03/23 06:07:43;;;;;;;1.77;1.30;;;;;;;7.28;69.91;97361.13;6139896;28;20241;-36
2023/03/23 06:10:44;;;;;;;1.47;1.20;;;;;;;7.46;69.70;97365.53;6146481;28;20234;-36
2023/03/23 06:13:47;;;;;;;1.80;1.53;;;;;;;7.67;69.60;97372.91;6127484;28;20245;-36
2023/03/23 06:16:49;;;;;;;1.63;1.30;;;;;;;7.87;69.52;97377.88;6130823;28;20597;-35
2023/03/23 06:19:50;;;;;;;1.90;1.57;;;;;;;8.08;68.45;97371.19;6130136;28;20227;-36
2023/03/23 06:22:52;;;;;;;1.50;1.40;;;;;;;8.33;67.53;97376.19;6129251;28;20874;-36
2023/03/23 06:26:16;;;;;;;1.77;1.20;;;;;;;8.51;66.93;97365.44;6124617;28;20231;-36
2023/03/23 06:29:19;;;;;;;1.50;1.20;;;;;;;8.84;66.21;97381.72;6114874;28;20631;-36
2023/03/23 06:32:29;;;;;;;1.90;1.20;;;;;;;9.11;65.09;97384.56;6131563;28;20227;-36
2023/03/23 06:35:31;;;;;;;1.30;1.10;;;;;;;9.34;64.12;97373.81;6114786;28;20280;-36
2023/03/23 06:38:47;;;;;;;2.53;1.00;;;;;;;9.55;63.59;97382.91;6129140;28;20302;-36
2023/03/23 06:41:51;;;;;;;1.17;0.90;;;;;;;9.70;62.97;97377.00;6114506;28;20230;-36
2023/03/23 06:44:56;;;;;;;1.53;1.00;;;;;;;9.87;61.91;97374.34;6128786;28;20280;-36
2023/03/23 06:47:58;;;;;;;1.27;1.17;;;;;;;10.05;60.56;97377.53;6123241;28;20313;-36
2023/03/23 06:50:59;;;;;;;1.40;1.10;;;;;;;10.22;60.22;97379.34;6138275;28;20238;-36
2023/03/23 06:54:02;;;;;;;0.70;0.70;;;;;;;10.35;60.42;97373.69;6145969;28;20333;-36
2023/03/23 06:57:08;;;;;;;1.80;1.17;;;;;;;10.48;60.53;97377.84;6114478;28;20249;-36
2023/03/23 07:00:13;;;;;;;1.20;1.10;;;;;;;10.61;59.57;97377.47;6127981;28;20251;-36
2023/03/23 07:03:15;;;;;;;0.97;0.90;;;;;;;10.80;58.84;97372.63;6129493;28;20240;-36
2023/03/23 07:06:17;;;;;;;2.13;1.17;;;;;;;10.89;57.90;97375.63;6130248;28;20314;-36
2023/03/23 07:09:25;;;;;;;0.83;0.83;;;;;;;11.04;58.68;97389.91;6096427;28;20735;-36
2023/03/23 07:12:27;;;;;;;1.10;0.80;;;;;;;11.13;58.91;97394.78;6131219;28;20716;-36
2023/03/23 07:15:29;;;;;;;1.20;1.00;;;;;;;11.22;58.44;97395.94;6129342;28;20251;-36
2023/03/23 07:18:32;;;;;;;1.00;0.90;;;;;;;11.14;57.97;97367.88;6128594;28;20262;-36
2023/03/23 07:21:34;;;;;;;1.43;1.07;;;;;;;11.37;58.06;97396.06;6129559;28;20306;-36
2023/03/23 07:24:36;;;;;;;1.10;1.00;;;;;;;11.45;58.52;97400.94;6128219;28;20581;-36
2023/03/23 07:27:46;;;;;;;1.53;1.00;;;;;;;11.55;58.45;97389.56;6129516;28;20591;-36
2023/03/23 07:30:48;;;;;;;1.10;1.00;;;;;;;11.60;58.25;97389.59;6137133;28;20660;-36
2023/03/23 07:33:50;;;;;;;2.23;0.97;;;;;;;11.69;58.12;97392.59;6125103;28;20691;-36
2023/03/23 07:36:51;;;;;;;0.93;0.90;;;;;;;11.83;58.04;97394.63;6131350;28;20613;-36
2023/03/23 07:39:52;;;;;;;1.53;1.17;;;;;;;12.04;57.21;97387.53;6128211;28;20274;-36
2023/03/23 07:42:57;;;;;;;2.93;1.30;;;;;;;12.30;56.31;97388.47;6132024;28;20609;-36
2023/03/23 07:46:21;;;;;;;1.47;1.00;;;;;;;12.63;55.67;97384.59;6133636;28;20242;-36
2023/03/23 07:49:41;;;;;;;1.47;1.23;;;;;;;13.07;55.12;97376.16;6133751;28;20317;-36
2023/03/23 07:52:57;;;;;;;7.10;1.40;;;;;;;13.75;53.75;97377.84;6132261;29;20297;-36
2023/03/23 07:56:03;;;;;;;1.20;1.00;;;;;;;14.43;51.66;97376.34;6133900;28;20333;-36
2023/03/23 07:59:22;;;;;;;2.97;1.60;;;;;;;15.06;49.60;97381.13;6133830;28;20654;-36
2023/03/23 08:02:24;;;;;;;1.87;1.40;;;;;;;15.69;48.37;97383.94;6135045;28;20233;-36
2023/03/23 08:05:32;;;;;;;1.97;1.20;;;;;;;16.55;46.49;97384.16;6135383;28;20742;-37
2023/03/23 08:08:49;;;;;;;1.63;1.00;;;;;;;17.67;44.21;97377.16;6135457;28;20246;-36
2023/03/23 08:12:08;;;;;;;2.97;1.40;;;;;;;18.18;42.55;97370.94;6132887;28;20238;-36
2023/03/23 08:15:37;;;;;;;1.30;1.10;;;;;;;18.38;41.96;97360.84;6132544;28;20320;-37
2023/03/23 08:18:56;;;;;;;1.13;1.03;;;;;;;17.61;43.33;97374.88;6147371;28;20245;-36
2023/03/23 08:22:09;;;;;;;1.63;1.20;;;;;;;17.18;43.82;97372.28;6131072;28;20235;-36
2023/03/23 08:25:34;;;;;;;3.63;1.40;;;;;;;16.61;45.55;97371.44;6130889;28;20239;-36
2023/03/23 08:28:57;;;;;;;2.70;1.33;;;;;;;16.13;46.61;97385.66;6107803;28;20274;-36
2023/03/23 08:32:18;;;;;;;1.67;1.27;;;;;;;15.90;47.22;97383.75;6130201;28;20260;-36
2023/03/23 08:35:38;;;;;;;2.97;1.63;;;;;;;15.47;47.51;97351.34;6134242;28;20678;-36
2023/03/23 08:39:05;;;;;;;4.10;1.57;;;;;;;15.73;48.69;97384.19;6133432;28;20238;-36
2023/03/23 08:42:43;;;;;;;2.43;1.23;;;;;;;16.13;48.69;97369.53;6119726;28;20286;-36
2023/03/23 08:46:08;;;;;;;2.40;1.40;;;;;;;17.17;45.57;97392.22;6094386;28;20235;-36
2023/03/23 08:49:32;;;;;;;4.00;1.43;;;;;;;17.34;45.36;97399.78;6099720;28;20618;-36
2023/03/23 08:52:59;;;;;;;4.27;2.00;;;;;;;17.31;44.03;97398.47;6127330;28;20230;-36
2023/03/23 08:56:14;;;;;;;5.77;2.43;;;;;;;17.34;43.76;97373.69;6131547;28;20602;-36
2023/03/23 08:59:41;;;;;;;4.23;1.90;;;;;;;17.59;43.41;97401.31;6134650;28;20242;-36
2023/03/23 09:03:05;;;;;;;6.67;2.33;;;;;;;17.78;43.40;97388.59;6131841;28;20238;-37
2023/03/23 09:06:27;;;;;;;10.60;3.87;;;;;;;18.01;42.65;97389.56;6132897;28;20231;-37
2023/03/23 09:09:28;;;;;;;8.63;3.70;;;;;;;18.16;42.20;97389.28;6133690;28;20257;-37
2023/03/23 09:12:29;;;;;;;8.70;3.90;;;;;;;18.34;41.84;97387.63;6133601;28;20628;-37
2023/03/23 09:15:31;;;;;;;6.80;3.93;;;;;;;18.30;40.90;97357.75;6132148;28;20229;-37
2023/03/23 09:18:34;;;;;;;9.13;3.80;;;;;;;18.60;40.59;97370.91;6133976;28;20264;-37
2023/03/23 09:21:36;;;;;;;7.93;3.50;;;;;;;18.67;40.70;97347.84;6132173;28;20718;-37
2023/03/23 09:24:37;;;;;;;7.23;3.67;;;;;;;19.13;39.85;97389.25;6131860;28;20234;-37
2023/03/23 09:27:39;;;;;;;5.17;3.37;;;;;;;19.43;38.56;97388.56;6133631;28;20237;-37
2023/03/23 09:30:40;;;;;;;4.67;2.87;;;;;;;19.64;37.33;97382.69;6132524;28;20321;-37
2023/03/23 09:33:41;;;;;;;7.13;3.30;;;;;;;19.81;37.94;97389.03;6132596;28;20634;-37
2023/03/23 09:36:43;;;;;;;10.50;3.93;;;;;;;20.01;36.47;97371.47;6133329;28;20218;-37
2023/03/23 09:39:44;;;;;;;4.97;2.70;;;;;;;20.56;35.06;97386.53;6148138;28;20241;-37
2023/03/23 09:43:30;;;;;;;4.60;3.17;;;;;;;20.96;33.27;97381.84;6132953;28;20234;-37
2023/03/23 09:46:40;;;;;;;4.47;3.00;;;;;;;21.33;32.87;97383.19;6120598;28;20230;-37
2023/03/23 09:49:53;;;;;;;6.50;3.30;;;;;;;21.66;32.72;97379.97;6132186;28;20231;-37
2023/03/23 09:52:58;;;;;;;6.77;3.47;;;;;;;22.01;33.24;97383.41;6132666;28;20707;-37
2023/03/23 09:55:59;;;;;;;3.50;2.77;;;;;;;22.19;32.33;97358.97;6133196;28;20227;-37
2023/03/23 09:59:19;;;;;;;6.40;3.30;;;;;;;22.59;31.46;97378.44;6115559;28;20717;-37
2023/03/23 10:02:30;;;;;;;3.63;2.70;;;;;;;22.75;29.85;97379.47;6132340;28;20722;-37
2023/03/23 10:05:40;;;;;;;3.20;2.23;;;;;;;22.87;28.03;97374.13;6131017;28;20230;-37
2023/03/23 10:08:54;;;;;;;5.83;3.00;;;;;;;23.20;28.83;97381.59;6128901;28;20243;-37
2023/03/23 10:12:13;;;;;;;6.27;2.97;;;;;;;23.28;28.86;97367.16;6133519;28;20243;-37
2023/03/23 10:15:29;;;;;;;6.93;3.10;;;;;;;23.46;28.55;97369.75;6131825;28;20285;-37
2023/03/23 10:18:41;;;;;;;2.23;2.03;;;;;;;23.53;25.97;97348.22;6130459;28;20238;-37
2023/03/23 10:21:51;;;;;;;5.37;2.93;;;;;;;23.73;26.72;97355.56;6130723;28;20288;-36
2023/03/23 10:25:11;;;;;;;5.77;3.20;;;;;;;23.61;28.33;97358.25;6130595;28;20231;-37
2023/03/23 10:28:17;;;;;;;2.77;2.43;;;;;;;23.36;27.12;97339.09;6129518;28;20321;-37
2023/03/23 10:31:23;;;;;;;2.93;2.60;;;;;;;23.70;27.65;97355.47;6131494;28;20293;-37
2023/03/23 10:34:36;;;;;;;7.50;3.40;;;;;;;23.84;27.60;97345.88;6131075;28;20242;-37
2023/03/23 10:37:43;;;;;;;6.70;4.10;;;;;;;23.73;27.99;97352.84;6130045;28;20238;-36
2023/03/23 10:40:49;;;;;;;6.40;4.10;;;;;;;23.61;28.06;97348.16;6132329;28;20805;-37
2023/03/23 10:43:52;;;;;;;6.47;4.40;;;;;;;23.50;28.25;97352.44;6131072;28;20257;-37
2023/03/23 10:46:58;;;;;;;7.53;4.80;;;;;;;23.69;28.59;97349.22;6131036;28;20707;-37
2023/03/23 10:50:02;;;;;;;6.10;4.00;;;;;;;23.70;28.48;97344.59;6132361;28;20282;-37
2023/03/23 10:53:16;;;;;;;5.60;4.93;;;;;;;23.75;29.14;97350.63;6130968;28;20245;-37
2023/03/23 10:56:27;;;;;;;5.70;4.70;;;;;;;23.49;28.87;97331.00;6131621;28;20239;-37
2023/03/23 10:59:32;;;;;;;9.27;4.37;;;;;;;23.71;29.30;97340.75;6123760;28;20298;-37
2023/03/23 11:02:56;;;;;;;5.93;4.10;;;;;;;23.60;28.82;97335.69;6131949;28;20264;-37
2023/03/23 11:06:00;;;;;;;5.40;4.43;;;;;;;23.54;29.34;97336.22;6129391;28;20230;-37
2023/03/23 11:09:13;;;;;;;3.80;3.47;;;;;;;23.38;29.10;97342.28;6130824;28;20241;-37
2023/03/23 11:12:19;;;;;;;4.97;4.20;;;;;;;23.43;27.82;97341.28;6131379;28;20226;-37
2023/03/23 11:15:25;;;;;;;7.37;4.73;;;;;;;23.04;29.31;97337.91;6129360;28;20257;-37
2023/03/23 11:18:40;;;;;;;6.97;4.53;;;;;;;22.64;29.84;97341.03;6123827;28;20277;-36
2023/03/23 11:21:47;;;;;;;4.43;3.93;;;;;;;22.95;29.62;97323.59;6133686;28;20238;-37
2023/03/23 11:24:53;;;;;;;4.53;3.97;;;;;;;22.89;29.85;97333.06;6132004;28;20300;-37
2023/03/23 11:27:55;;;;;;;6.77;4.17;;;;;;;22.46;29.92;97334.09;6136280;28;20301;-37
2023/03/23 11:30:58;;;;;;;4.63;3.80;;;;;;;22.29;29.83;97332.28;6133569;28;20286;-37
2023/03/23 11:34:03;;;;;;;6.13;3.60;;;;;;;22.30;30.13;97333.84;6132354;28;20233;-37
2023/03/23 11:37:12;;;;;;;4.40;3.43;;;;;;;22.27;30.11;97307.41;6134738;28;20238;-37
2023/03/23 11:40:20;;;;;;;7.40;3.23;;;;;;;22.55;29.86;97325.91;6134889;28;20285;-36
2023/03/23 11:43:26;;;;;;;6.37;3.40;;;;;;;22.67;30.25;97323.28;6132326;28;20229;-37
2023/03/23 11:46:38;;;;;;;2.83;2.60;;;;;;;22.81;29.25;97326.56;6136036;28;20320;-36
2023/03/23 11:50:00;;;;;;;6.60;2.77;;;;;;;23.00;28.45;97317.97;6133860;28;20257;-36
2023/03/23 11:53:22;;;;;;;7.70;3.40;;;;;;;22.75;28.19;97298.00;6131216;28;20277;-36
2023/03/23 11:56:24;;;;;;;5.80;3.17;;;;;;;22.92;28.53;97319.63;6111222;28;20227;-37
2023/03/23 11:59:35;;;;;;;4.77;2.90;;;;;;;22.93;27.75;97317.72;6134759;28;20284;-37
2023/03/23 12:03:01;;;;;;;5.57;2.83;;;;;;;22.39;27.63;97258.63;6135829;28;20253;-37
2023/03/23 12:06:47;;;;;;;5.93;3.70;;;;;;;22.36;28.59;97310.03;6129249;28;20292;-37
2023/03/23 12:10:10;;;;;;;5.67;3.83;;;;;;;22.00;28.69;97313.22;6132987;28;20325;-36
2023/03/23 12:13:35;;;;;;;7.20;3.50;;;;;;;21.98;29.38;97307.34;6127377;28;20646;-37
2023/03/23 12:17:07;;;;;;;5.27;3.10;;;;;;;22.03;30.10;97309.88;6132476;28;20246;-44
2023/03/23 12:20:29;;;;;;;6.00;3.73;;;;;;;21.87;30.40;97306.88;6133198;28;20633;-37
2023/03/23 12:23:42;;;;;;;4.50;3.27;;;;;;;21.72;30.66;97310.91;6146669;28;20512;-37
2023/03/23 12:27:03;;;;;;;6.23;3.50;;;;;;;21.36;30.55;97306.66;6131280;28;20227;-37
2023/03/23 12:30:15;;;;;;;3.60;3.17;;;;;;;21.21;30.99;97306.34;6131268;28;20281;-37
2023/03/23 12:33:26;;;;;;;6.63;3.80;;;;;;;21.18;31.09;97309.69;6133928;28;20239;-36
2023/03/23 12:36:27;;;;;;;5.00;3.70;;;;;;;21.10;31.37;97303.16;6134465;28;20606;-36
2023/03/23 12:40:07;;;;;;;8.40;4.83;;;;;;;20.87;31.07;97306.00;6116629;28;20299;-36
2023/03/23 12:43:23;;;;;;;5.47;4.00;;;;;;;20.75;31.40;97296.94;6133251;28;20239;-35
2023/03/23 12:46:33;;;;;;;6.37;3.57;;;;;;;20.66;31.60;97302.34;6131657;28;20239;-36
2023/03/23 12:49:36;;;;;;;6.07;3.67;;;;;;;20.83;32.25;97299.63;6134209;28;20337;-37
2023/03/23 12:53:00;;;;;;;7.20;4.00;;;;;;;20.87;31.37;97292.47;6133753;28;20261;-37
2023/03/23 12:56:34;;;;;;;7.97;3.47;;;;;;;20.77;31.55;97257.59;6108187;28;20730;-37
2023/03/23 12:59:39;;;;;;;3.97;3.50;;;;;;;21.21;30.84;97279.25;6131652;28;20234;-37
2023/03/23 13:03:18;;;;;;;6.40;3.50;;;;;;;21.28;30.60;97279.53;6132966;28;20227;-37
2023/03/23 13:06:23;;;;;;;6.50;3.10;;;;;;;21.46;29.91;97280.34;6130191;28;20655;-36
2023/03/23 13:10:06;;;;;;;5.50;3.60;;;;;;;21.76;29.71;97268.47;6133416;28;20317;-36
2023/03/23 13:13:16;;;;;;;3.80;3.00;;;;;;;21.61;29.09;97242.69;6106244;28;20242;-37
2023/03/23 13:16:37;;;;;;;4.07;3.07;;;;;;;21.96;29.18;97252.59;6106855;29;20398;-37
2023/03/23 13:20:16;;;;;;;7.20;3.83;;;;;;;22.05;29.26;97265.00;6106662;28;20390;-37
2023/03/23 13:23:24;;;;;;;9.17;4.30;;;;;;;21.86;28.86;97261.88;6090172;29;20712;-37
2023/03/23 13:26:26;;;;;;;5.30;3.40;;;;;;;21.49;28.37;97258.84;6107106;28;20246;-37
2023/03/23 13:29:28;;;;;;;6.03;3.20;;;;;;;21.59;28.33;97250.34;6105422;29;20286;-37
2023/03/23 13:32:35;;;;;;;4.23;3.27;;;;;;;21.71;28.63;97246.94;6104030;29;20717;-37
2023/03/23 13:35:38;;;;;;;3.63;3.10;;;;;;;21.67;29.04;97239.78;6106131;29;20230;-37
2023/03/23 13:38:47;;;;;;;5.90;3.23;;;;;;;21.81;28.72;97241.16;6106542;29;20243;-36
2023/03/23 13:42:07;;;;;;;3.77;2.90;;;;;;;21.68;28.35;97244.13;6089923;29;20690;-36
2023/03/23 13:45:19;;;;;;;5.80;2.70;;;;;;;21.66;28.91;97238.22;6105387;29;20699;-36
2023/03/23 13:48:24;;;;;;;4.00;2.70;;;;;;;21.58;28.27;97235.22;6141667;28;20702;-37
2023/03/23 13:51:43;;;;;;;4.53;3.03;;;;;;;21.54;29.14;97228.06;6130413;28;20254;-37
2023/03/23 13:54:47;;;;;;;5.03;3.10;;;;;;;21.32;29.41;97210.09;6129591;28;20306;-37
2023/03/23 13:58:09;;;;;;;3.10;2.40;;;;;;;21.45;29.35;97232.69;6132914;28;20245;-36
2023/03/23 14:01:17;;;;;;;3.10;2.80;;;;;;;21.43;28.76;97232.22;6131001;28;20250;-36
2023/03/23 14:04:19;;;;;;;3.43;2.83;;;;;;;21.47;29.27;97231.25;6132746;28;20231;-37
2023/03/23 14:07:20;;;;;;;3.10;2.80;;;;;;;21.53;29.77;97229.19;6133228;28;20262;-37
2023/03/23 14:10:22;;;;;;;3.83;3.23;;;;;;;21.68;29.40;97227.84;6132251;28;20240;-37
2023/03/23 14:13:45;;;;;;;4.47;2.40;;;;;;;21.79;29.62;97218.22;6130839;28;20238;-37
2023/03/23 14:16:51;;;;;;;4.77;2.70;;;;;;;21.83;30.00;97211.81;6131123;28;20321;-37
2023/03/23 14:19:57;;;;;;;3.07;2.77;;;;;;;21.74;29.74;97196.72;6115116;28;20233;-37
2023/03/23 14:23:17;;;;;;;4.83;2.50;;;;;;;21.79;29.51;97221.72;6126004;28;20679;-37
2023/03/23 14:26:20;;;;;;;3.10;2.40;;;;;;;21.69;29.63;97227.50;6124790;28;20242;-37
2023/03/23 14:29:22;;;;;;;2.50;2.13;;;;;;;21.55;30.02;97214.16;6130748;28;20717;-37
2023/03/23 14:32:25;;;;;;;3.17;2.27;;;;;;;21.70;29.59;97231.81;6129784;28;20236;-37
2023/03/23 14:35:32;;;;;;;3.40;2.40;;;;;;;21.68;29.32;97231.34;6131666;28;20234;-37
2023/03/23 14:38:33;;;;;;;6.33;2.43;;;;;;;21.39;29.59;97221.25;6142745;28;20242;-37
2023/03/23 14:41:35;;;;;;;4.63;2.60;;;;;;;21.28;29.78;97234.31;6130954;28;20718;-37
2023/03/23 14:44:43;;;;;;;2.30;2.10;;;;;;;21.20;29.59;97234.31;6133046;28;20572;-36
2023/03/23 14:47:52;;;;;;;4.73;2.70;;;;;;;21.17;29.14;97234.94;6130624;28;20291;-37
2023/03/23 14:50:59;;;;;;;2.80;2.37;;;;;;;21.12;29.57;97230.50;6129499;28;20231;-36
2023/03/23 14:54:01;;;;;;;3.93;2.00;;;;;;;21.04;29.67;97232.13;6130985;28;20265;-37